Time;durP1;ratioP1;P1;durP2;ratioP2;P2;SDS_P1;SDS_P2;PMS_P1;PMS_P2;Temp;Humidity;BMP_temperature;BMP_pressure;BME280_temperature;BME280_humidity;BME280_pressure;Samples;Min_cycle;Max_cycle;Signal;HPM_P1;HPM_P2
2022/10/17 00:00:23;;;;;;;0.10;0.10;;;;;;;13.25;100.00;101539.59;5092380;28;20031;-72
2022/10/17 00:02:48;;;;;;;0.00;0.00;;;;;;;13.24;100.00;101532.50;5096625;28;20429;-72
2022/10/17 00:05:14;;;;;;;0.00;0.00;;;;;;;13.33;100.00;101543.41;5098635;28;20548;-72
2022/10/17 00:07:39;;;;;;;0.00;0.00;;;;;;;13.33;100.00;101547.97;5099860;28;20020;-72
2022/10/17 00:10:06;;;;;;;0.00;0.00;;;;;;;13.30;100.00;101550.88;5092801;28;20652;-72
2022/10/17 00:12:32;;;;;;;0.10;0.10;;;;;;;13.27;100.00;101553.81;5093202;28;20027;-72
2022/10/17 00:14:57;;;;;;;0.00;0.00;;;;;;;13.21;100.00;101560.56;5071905;28;20031;-73
2022/10/17 00:17:22;;;;;;;0.00;0.00;;;;;;;13.24;100.00;101560.31;5074749;28;20031;-73
2022/10/17 00:19:48;;;;;;;0.00;0.00;;;;;;;13.28;100.00;101542.91;5088229;28;20073;-73
2022/10/17 00:22:13;;;;;;;0.03;0.03;;;;;;;13.16;100.00;101527.69;5091364;28;20063;-72
2022/10/17 00:24:38;;;;;;;0.10;0.10;;;;;;;13.30;100.00;101550.88;5092808;28;20030;-73
2022/10/17 00:27:04;;;;;;;0.05;0.05;;;;;;;13.28;100.00;101540.19;5089898;28;20528;-74
2022/10/17 00:29:29;;;;;;;0.08;0.08;;;;;;;13.23;100.00;101544.25;5092190;28;20062;-78
2022/10/17 00:31:55;;;;;;;0.08;0.08;;;;;;;13.31;100.00;101547.22;5086602;28;20115;-73
2022/10/17 00:34:21;;;;;;;0.00;0.00;;;;;;;13.26;100.00;101536.75;5091304;28;20386;-73
2022/10/17 00:36:46;;;;;;;0.08;0.08;;;;;;;13.22;100.00;101529.06;5097616;28;20024;-73
2022/10/17 00:39:11;;;;;;;0.00;0.00;;;;;;;13.32;100.00;101536.28;5092623;28;20065;-73
2022/10/17 00:41:37;;;;;;;0.10;0.10;;;;;;;13.24;100.00;101527.09;5098679;28;20063;-73
2022/10/17 00:44:05;;;;;;;0.00;0.00;;;;;;;13.32;100.00;101528.19;5097879;28;20027;-72
2022/10/17 00:46:33;;;;;;;0.10;0.10;;;;;;;13.42;100.00;101524.81;5095093;28;20385;-74
2022/10/17 00:49:02;;;;;;;0.10;0.10;;;;;;;13.32;100.00;101508.47;5076299;28;20028;-72
2022/10/17 00:51:39;;;;;;;0.05;0.05;;;;;;;13.39;100.00;101519.63;5078285;28;20012;-71
2022/10/17 00:54:05;;;;;;;0.10;0.10;;;;;;;13.48;100.00;101522.50;5078251;28;20056;-72
2022/10/17 00:56:30;;;;;;;0.00;0.00;;;;;;;13.46;100.00;101529.00;5097387;28;20055;-72
2022/10/17 00:58:56;;;;;;;0.00;0.00;;;;;;;13.45;100.00;101522.72;5084107;28;20587;-72
2022/10/17 01:01:21;;;;;;;0.00;0.00;;;;;;;13.56;100.00;101529.13;5085130;28;20026;-72
2022/10/17 01:03:46;;;;;;;0.10;0.10;;;;;;;13.53;100.00;101523.97;5092174;28;20499;-72
2022/10/17 01:06:12;;;;;;;0.00;0.00;;;;;;;13.54;100.00;101525.69;5076785;28;20027;-73
2022/10/17 01:08:37;;;;;;;0.00;0.00;;;;;;;13.55;100.00;101513.91;5099074;28;20054;-71
2022/10/17 01:11:12;;;;;;;0.00;0.00;;;;;;;13.58;100.00;101519.06;5093643;28;20114;-72
2022/10/17 01:13:43;;;;;;;0.00;0.00;;;;;;;13.69;100.00;101515.50;5067843;28;20470;-73
2022/10/17 01:16:40;;;;;;;0.10;0.10;;;;;;;13.56;100.00;101521.03;5074729;28;20084;-72
2022/10/17 01:19:43;;;;;;;0.00;0.00;;;;;;;13.46;100.00;101512.81;5086023;28;20035;-72
2022/10/17 01:22:24;;;;;;;0.00;0.00;;;;;;;13.50;100.00;101515.13;5095522;28;20065;-72
2022/10/17 01:24:52;;;;;;;0.00;0.00;;;;;;;13.52;100.00;101516.84;5076487;28;20526;-72
2022/10/17 01:27:38;;;;;;;0.10;0.10;;;;;;;13.50;100.00;101517.00;5100082;28;20031;-72
2022/10/17 01:30:21;;;;;;;0.00;0.00;;;;;;;13.49;100.00;101515.28;5097181;27;20118;-72
2022/10/17 01:32:48;;;;;;;0.00;0.00;;;;;;;13.55;100.00;101524.72;5095271;27;20016;-72
2022/10/17 01:35:22;;;;;;;0.00;0.00;;;;;;;13.55;100.00;101513.91;5083440;28;20494;-72
2022/10/17 01:38:09;;;;;;;0.00;0.00;;;;;;;13.55;100.00;101527.41;5076164;28;20020;-72
2022/10/17 01:40:38;;;;;;;0.00;0.00;;;;;;;13.59;100.00;101512.69;5097844;27;20019;-72
2022/10/17 01:43:08;;;;;;;0.00;0.00;;;;;;;13.72;100.00;101516.09;5077202;28;20036;-72
2022/10/17 01:45:42;;;;;;;0.00;0.00;;;;;;;13.67;100.00;101506.69;5083095;28;20114;-72
2022/10/17 01:48:15;;;;;;;0.10;0.10;;;;;;;13.49;100.00;101474.81;5079403;28;20027;-72
2022/10/17 01:50:45;;;;;;;0.00;0.00;;;;;;;13.47;100.00;101449.78;5083718;28;20552;-71
2022/10/17 01:53:15;;;;;;;0.10;0.10;;;;;;;13.62;100.00;101480.06;5082314;28;20024;-72
2022/10/17 01:55:42;;;;;;;0.00;0.00;;;;;;;13.57;100.00;101476.88;5079837;28;20032;-71
2022/10/17 01:58:32;;;;;;;0.00;0.00;;;;;;;13.70;100.00;101499.19;5081027;28;20038;-72
2022/10/17 02:01:00;;;;;;;0.10;0.10;;;;;;;13.78;100.00;101488.63;5075701;28;20050;-72
2022/10/17 02:03:26;;;;;;;0.10;0.10;;;;;;;13.79;100.00;101497.56;5061004;28;20512;-72
2022/10/17 02:05:52;;;;;;;0.10;0.10;;;;;;;13.68;100.00;101486.81;5088616;28;20035;-72
2022/10/17 02:08:28;;;;;;;0.10;0.10;;;;;;;13.62;100.00;101486.31;5089141;28;20714;-71
2022/10/17 02:11:00;;;;;;;0.00;0.00;;;;;;;13.54;100.00;101480.66;5095341;28;21958;-71
2022/10/17 02:13:48;;;;;;;0.10;0.10;;;;;;;13.69;100.00;101497.47;5096249;28;20147;-71
2022/10/17 02:16:28;;;;;;;0.00;0.00;;;;;;;13.68;100.00;101493.03;5079414;28;20043;-71
2022/10/17 02:19:12;;;;;;;0.00;0.00;;;;;;;13.62;100.00;101494.41;5092863;28;20031;-71
2022/10/17 02:21:42;;;;;;;0.10;0.10;;;;;;;13.61;100.00;101503.47;5093414;28;20386;-71
2022/10/17 02:24:31;;;;;;;0.10;0.10;;;;;;;13.64;100.00;101505.94;5078845;28;20036;-71
2022/10/17 02:26:59;;;;;;;0.00;0.00;;;;;;;13.71;100.00;101498.19;5076214;28;20028;-70
2022/10/17 02:29:30;;;;;;;0.00;0.00;;;;;;;13.72;100.00;101494.53;5094151;28;20023;-71
2022/10/17 02:32:03;;;;;;;0.05;0.05;;;;;;;13.64;100.00;101478.97;5093459;28;20443;-71
2022/10/17 02:34:38;;;;;;;0.10;0.10;;;;;;;13.59;100.00;101478.47;5078321;28;20471;-71
2022/10/17 02:37:05;;;;;;;0.10;0.10;;;;;;;13.80;100.00;101488.50;5075758;28;20473;-71
2022/10/17 02:39:30;;;;;;;0.10;0.10;;;;;;;13.83;100.00;101488.25;5079142;28;20493;-71
2022/10/17 02:41:58;;;;;;;0.10;0.10;;;;;;;13.68;100.00;101470.63;5079224;28;20028;-71
2022/10/17 02:44:24;;;;;;;0.10;0.10;;;;;;;13.72;100.00;101474.78;5079002;28;20032;-71
2022/10/17 02:46:58;;;;;;;0.10;0.10;;;;;;;13.89;100.00;101484.22;5089636;28;20177;-71
2022/10/17 02:49:27;;;;;;;;;;;;;;;13.93;100.00;101485.66;5077623;28;20032;-71
2022/10/17 02:52:09;;;;;;;0.00;0.00;;;;;;;13.96;100.00;101490.78;5080812;28;19912;-71
2022/10/17 02:54:45;;;;;;;0.00;0.00;;;;;;;14.04;100.00;101490.16;5094895;28;20024;-72
2022/10/17 02:57:24;;;;;;;0.05;0.05;;;;;;;13.90;100.00;101488.63;5078236;28;20122;-71
2022/10/17 02:59:50;;;;;;;0.10;0.10;;;;;;;13.95;100.00;101460.25;5082278;28;20378;-70
2022/10/17 03:02:16;;;;;;;0.10;0.10;;;;;;;13.96;100.00;101474.59;5061319;28;20047;-71
2022/10/17 03:04:43;;;;;;;0.10;0.10;;;;;;;14.17;100.00;101485.47;5078205;28;20110;-71
2022/10/17 03:07:08;;;;;;;0.10;0.10;;;;;;;14.06;100.00;101478.28;5096496;28;20059;-71
2022/10/17 03:09:33;;;;;;;0.10;0.10;;;;;;;14.13;100.00;101485.88;5074725;28;20059;-71
2022/10/17 03:11:58;;;;;;;0.10;0.10;;;;;;;13.94;100.00;101477.44;5094821;28;20024;-72
2022/10/17 03:14:24;;;;;;;0.00;0.00;;;;;;;13.91;100.00;101469.59;5080427;28;20031;-70
2022/10/17 03:16:49;;;;;;;0.10;0.10;;;;;;;14.15;100.00;101486.59;5096634;27;20390;-70
2022/10/17 03:19:14;;;;;;;0.10;0.10;;;;;;;14.18;100.00;101487.19;5079748;28;20065;-71
2022/10/17 03:21:40;;;;;;;0.10;0.10;;;;;;;14.22;100.00;101480.56;5083851;28;20031;-71
2022/10/17 03:24:05;;;;;;;0.05;0.05;;;;;;;14.19;100.00;101475.41;5096947;27;20034;-72
2022/10/17 03:26:31;;;;;;;0.05;0.05;;;;;;;14.46;100.00;101489.41;5081608;27;20074;-71
2022/10/17 03:28:56;;;;;;;0.08;0.08;;;;;;;14.34;100.00;101467.00;5081520;28;20032;-71
2022/10/17 03:31:21;;;;;;;0.10;0.10;;;;;;;14.22;100.00;101447.28;5103726;28;20370;-71
2022/10/17 03:33:47;;;;;;;0.08;0.08;;;;;;;14.54;100.00;101490.50;5078300;28;20510;-71
2022/10/17 03:36:14;;;;;;;0.00;0.00;;;;;;;14.54;100.00;101492.34;5094070;22;20051;-71
2022/10/17 03:38:40;;;;;;;0.05;0.05;;;;;;;14.51;100.00;101481.78;5079646;28;20062;-71
2022/10/17 03:41:06;;;;;;;0.10;0.10;;;;;;;14.30;100.00;101474.50;5044295;28;20064;-69
2022/10/17 03:43:31;;;;;;;0.10;0.10;;;;;;;14.49;100.00;101486.47;5061323;28;20868;-71
2022/10/17 03:45:57;;;;;;;0.10;0.10;;;;;;;14.53;100.00;101490.63;5072234;28;20059;-71
2022/10/17 03:48:24;;;;;;;0.03;0.03;;;;;;;14.46;100.00;101479.47;5076677;28;20035;-70
2022/10/17 03:50:49;;;;;;;0.10;0.10;;;;;;;14.43;100.00;101471.63;5060569;28;20028;-71
2022/10/17 03:53:14;;;;;;;0.10;0.10;;;;;;;14.46;100.00;101487.59;5069750;28;20054;-71
2022/10/17 03:55:40;;;;;;;0.20;0.10;;;;;;;14.43;100.00;101495.09;5077092;28;20482;-71
2022/10/17 03:58:05;;;;;;;0.10;0.10;;;;;;;14.40;100.00;101488.97;5074157;28;20439;-72
2022/10/17 04:00:30;;;;;;;0.10;0.10;;;;;;;14.52;100.00;101494.31;5048231;28;20109;-69
2022/10/17 04:02:57;;;;;;;0.10;0.10;;;;;;;14.52;100.00;101488.91;5055271;28;20028;-71
2022/10/17 04:05:22;;;;;;;0.10;0.10;;;;;;;14.43;100.00;101463.53;5057849;28;20037;-70
2022/10/17 04:07:47;;;;;;;0.10;0.10;;;;;;;14.52;100.00;101441.16;5046510;28;20035;-71
2022/10/17 04:10:13;;;;;;;0.10;0.10;;;;;;;14.47;100.00;101446.06;5058994;28;20157;-70
2022/10/17 04:12:38;;;;;;;0.00;0.00;;;;;;;14.58;100.00;101471.31;5058078;28;20376;-69
2022/10/17 04:15:04;;;;;;;0.00;0.00;;;;;;;14.72;100.00;101489.09;5058714;28;20467;-73
2022/10/17 04:17:30;;;;;;;0.10;0.10;;;;;;;14.73;100.00;101483.56;5046060;28;20032;-75
2022/10/17 04:19:55;;;;;;;0.00;0.00;;;;;;;14.97;100.00;101495.97;5056289;28;20561;-75
2022/10/17 04:22:20;;;;;;;0.00;0.00;;;;;;;14.84;100.00;101475.38;5061388;28;20032;-78
2022/10/17 04:24:46;;;;;;;0.03;0.03;;;;;;;14.99;100.00;101489.41;5043648;28;20043;-70
2022/10/17 04:27:11;;;;;;;0.10;0.10;;;;;;;15.04;100.00;101496.28;5044441;28;20052;-72
2022/10/17 04:29:36;;;;;;;0.00;0.00;;;;;;;14.71;100.00;101466.63;5062604;28;20036;-72
2022/10/17 04:32:02;;;;;;;0.10;0.10;;;;;;;14.83;100.00;101505.25;5042795;28;20461;-70
2022/10/17 04:34:27;;;;;;;0.10;0.10;;;;;;;14.94;100.00;101488.09;5040354;28;20475;-70
2022/10/17 04:36:53;;;;;;;0.00;0.00;;;;;;;15.09;100.00;101512.97;5056271;28;20070;-72
2022/10/17 04:39:18;;;;;;;0.00;0.00;;;;;;;15.06;100.00;101513.22;5060370;28;20028;-74
2022/10/17 04:41:43;;;;;;;0.00;0.00;;;;;;;14.96;100.00;101516.72;5062042;28;20055;-72
2022/10/17 04:44:09;;;;;;;0.00;0.00;;;;;;;14.88;100.00;101499.44;5044888;28;20164;-78
2022/10/17 04:46:35;;;;;;;0.10;0.10;;;;;;;15.11;100.00;101516.41;5033987;28;20020;-72
2022/10/17 04:49:00;;;;;;;0.10;0.10;;;;;;;15.19;100.00;101507.63;5048553;28;20028;-72
2022/10/17 04:51:26;;;;;;;0.10;0.10;;;;;;;15.28;100.00;101520.34;5065152;28;20033;-71
2022/10/17 04:53:51;;;;;;;0.10;0.10;;;;;;;15.19;100.00;101500.38;5065044;28;21929;-73
2022/10/17 04:56:19;;;;;;;0.10;0.10;;;;;;;15.07;100.00;101523.06;5045142;28;20328;-73
2022/10/17 04:58:45;;;;;;;0.10;0.10;;;;;;;15.19;100.00;101526.56;5049314;28;20036;-75
2022/10/17 05:01:13;;;;;;;0.00;0.00;;;;;;;15.23;100.00;101523.44;5041937;28;20634;-74
2022/10/17 05:03:39;;;;;;;0.08;0.08;;;;;;;15.18;100.00;101533.81;5029073;28;20033;-76
2022/10/17 05:06:12;;;;;;;0.00;0.00;;;;;;;15.16;100.00;101538.50;5030430;28;20038;-72
2022/10/17 05:08:38;;;;;;;0.00;0.00;;;;;;;15.19;100.00;101538.25;5063976;28;20064;-72
2022/10/17 05:11:04;;;;;;;0.00;0.00;;;;;;;15.25;100.00;101539.53;5044785;28;20119;-72
2022/10/17 05:13:30;;;;;;;0.10;0.10;;;;;;;15.18;100.00;101520.28;5066183;28;20028;-74
2022/10/17 05:16:00;;;;;;;0.00;0.00;;;;;;;15.26;100.00;101538.56;5061696;28;20047;-74
2022/10/17 05:18:25;;;;;;;0.00;0.00;;;;;;;15.20;100.00;101539.97;5043499;28;20029;-73
2022/10/17 05:20:51;;;;;;;0.00;0.00;;;;;;;15.22;100.00;101545.22;5044614;28;20334;-73
2022/10/17 05:23:16;;;;;;;0.08;0.08;;;;;;;15.19;100.00;101530.13;5065536;28;20067;-72
2022/10/17 05:25:41;;;;;;;0.10;0.10;;;;;;;15.32;100.00;101543.44;5047084;28;20028;-74
2022/10/17 05:28:07;;;;;;;0.00;0.00;;;;;;;15.19;100.00;101531.97;5046932;28;20638;-73
2022/10/17 05:30:34;;;;;;;0.00;0.00;;;;;;;15.09;100.00;101534.59;5041204;28;20116;-75
2022/10/17 05:32:59;;;;;;;0.00;0.00;;;;;;;15.15;100.00;101542.19;5047083;28;20087;-74
2022/10/17 05:35:24;;;;;;;0.10;0.10;;;;;;;15.09;100.00;101549.00;5029252;28;20460;-74
2022/10/17 05:37:50;;;;;;;0.00;0.00;;;;;;;15.18;100.00;101562.69;5047853;28;20422;-73
2022/10/17 05:40:15;;;;;;;0.00;0.00;;;;;;;15.06;100.00;101540.28;5062199;28;20021;-73
2022/10/17 05:42:46;;;;;;;0.00;0.00;;;;;;;15.17;100.00;101569.09;5048431;28;20031;-73
2022/10/17 05:45:11;;;;;;;0.00;0.00;;;;;;;15.05;100.00;101535.84;5044407;28;20111;-74
2022/10/17 05:47:36;;;;;;;0.08;0.08;;;;;;;15.03;100.00;101533.28;5065995;28;20032;-74
2022/10/17 05:50:02;;;;;;;0.08;0.08;;;;;;;15.15;100.00;101553.00;5045221;28;20457;-72
2022/10/17 05:52:27;;;;;;;0.03;0.03;;;;;;;15.20;100.00;101567.00;5044506;28;20105;-72
2022/10/17 05:54:52;;;;;;;0.10;0.10;;;;;;;15.17;100.00;101547.47;5063263;28;20119;-73
2022/10/17 05:57:18;;;;;;;0.03;0.03;;;;;;;15.37;100.00;101561.97;5046453;28;20036;-75
2022/10/17 05:59:43;;;;;;;0.00;0.00;;;;;;;15.40;100.00;101564.41;5037656;28;20078;-77
2022/10/17 06:02:11;;;;;;;0.10;0.10;;;;;;;15.38;100.00;101571.81;5045065;28;20056;-72
2022/10/17 06:04:36;;;;;;;0.10;0.10;;;;;;;15.19;100.00;101549.06;5050666;28;20024;-73
2022/10/17 06:07:02;;;;;;;0.10;0.10;;;;;;;15.26;100.00;101552.09;5062475;28;20044;-72
2022/10/17 06:09:27;;;;;;;0.10;0.10;;;;;;;15.29;100.00;101568.06;5061428;28;20721;-74
2022/10/17 06:11:52;;;;;;;0.05;0.05;;;;;;;15.51;100.00;101568.88;5042775;28;20044;-72
2022/10/17 06:14:18;;;;;;;0.10;0.10;;;;;;;15.47;100.00;101564.72;5062573;28;20025;-72
2022/10/17 06:16:43;;;;;;;0.10;0.10;;;;;;;15.51;100.00;101561.59;5040215;28;20043;-72
2022/10/17 06:19:10;;;;;;;0.00;0.00;;;;;;;15.29;100.00;101568.06;5061151;28;20119;-71
2022/10/17 06:21:37;;;;;;;0.10;0.10;;;;;;;15.41;100.00;101571.53;5048718;28;20032;-72
2022/10/17 06:24:02;;;;;;;0.10;0.10;;;;;;;15.54;100.00;101582.16;5065925;28;20021;-74
2022/10/17 06:26:28;;;;;;;0.08;0.08;;;;;;;15.62;100.00;101563.41;5039189;28;20047;-75
2022/10/17 06:28:53;;;;;;;0.10;0.10;;;;;;;15.66;100.00;101572.09;5024318;28;20412;-75
2022/10/17 06:31:19;;;;;;;0.05;0.05;;;;;;;15.79;100.00;101588.13;5043009;28;20033;-77
2022/10/17 06:33:44;;;;;;;0.03;0.03;;;;;;;15.71;100.00;101586.09;5029584;28;20028;-75
2022/10/17 06:36:11;;;;;;;0.10;0.10;;;;;;;15.69;100.00;101598.91;5058872;28;20039;-73
2022/10/17 06:38:36;;;;;;;0.10;0.10;;;;;;;15.63;100.00;101584.03;5047001;28;20040;-73
2022/10/17 06:41:08;;;;;;;0.00;0.00;;;;;;;15.70;100.00;101581.66;5040150;28;20418;-76
2022/10/17 06:43:37;;;;;;;0.00;0.00;;;;;;;15.76;100.00;101600.06;5024202;28;20574;-73
2022/10/17 06:46:03;;;;;;;0.10;0.10;;;;;;;15.55;100.00;101570.34;5043746;28;20110;-73
2022/10/17 06:48:28;;;;;;;0.05;0.05;;;;;;;15.70;100.00;101592.50;5028711;28;20724;-74
2022/10/17 06:50:57;;;;;;;0.10;0.10;;;;;;;15.74;100.00;101565.00;5042519;28;20035;-76
2022/10/17 06:53:23;;;;;;;0.00;0.00;;;;;;;15.70;100.00;101578.97;5030940;28;20115;-73
2022/10/17 06:56:00;;;;;;;0.05;0.05;;;;;;;15.73;100.00;101593.06;5026852;28;20025;-75
2022/10/17 06:58:25;;;;;;;0.10;0.10;;;;;;;15.78;100.00;101587.25;5043917;28;20032;-75
2022/10/17 07:00:50;;;;;;;0.00;0.00;;;;;;;15.85;100.00;101604.66;5060687;28;20525;-72
2022/10/17 07:03:16;;;;;;;0.10;0.10;;;;;;;15.91;100.00;101607.88;5044379;28;20033;-72
2022/10/17 07:05:41;;;;;;;0.10;0.10;;;;;;;15.82;100.00;101595.97;5045371;28;20071;-74
2022/10/17 07:08:06;;;;;;;0.00;0.00;;;;;;;15.82;100.00;101613.06;5045273;28;20036;-73
2022/10/17 07:10:37;;;;;;;0.00;0.00;;;;;;;15.89;100.00;101619.69;5046100;28;20384;-73
2022/10/17 07:13:02;;;;;;;0.10;0.10;;;;;;;15.93;100.00;101614.00;5044551;28;20025;-72
2022/10/17 07:15:28;;;;;;;0.10;0.10;;;;;;;16.08;100.00;101609.06;5042809;28;20028;-79
2022/10/17 07:17:53;;;;;;;0.00;0.00;;;;;;;16.12;100.00;101594.28;5063138;28;20483;-74
2022/10/17 07:20:18;;;;;;;0.00;0.00;;;;;;;16.38;100.00;101616.28;5061540;28;21176;-76
2022/10/17 07:22:44;;;;;;;0.00;0.00;;;;;;;16.42;100.00;101608.75;5029861;28;20033;-73
2022/10/17 07:25:09;;;;;;;0.10;0.10;;;;;;;16.38;100.00;101605.44;5045063;28;20033;-74
2022/10/17 07:27:34;;;;;;;0.00;0.00;;;;;;;16.37;100.00;101601.03;5060720;28;20074;-73
2022/10/17 07:29:59;;;;;;;0.00;0.00;;;;;;;16.48;100.00;101621.72;5043187;28;20039;-77
2022/10/17 07:32:25;;;;;;;0.00;0.00;;;;;;;16.45;100.00;101633.72;5029072;28;20052;-73
2022/10/17 07:34:50;;;;;;;0.08;0.08;;;;;;;16.33;100.00;101634.81;5047390;28;20047;-76
2022/10/17 07:37:15;;;;;;;0.10;0.10;;;;;;;16.46;100.00;101623.72;5043829;28;20094;-76
2022/10/17 07:39:41;;;;;;;0.00;0.00;;;;;;;16.45;100.00;101639.13;5062642;28;20396;-74
2022/10/17 07:42:06;;;;;;;0.05;0.05;;;;;;;16.55;100.00;101655.41;5063107;28;20384;-75
2022/10/17 07:44:32;;;;;;;0.00;0.00;;;;;;;16.32;100.00;101647.50;5044564;28;20109;-75
2022/10/17 07:46:57;;;;;;;0.10;0.10;;;;;;;16.56;100.00;101654.44;5045302;28;20167;-72
2022/10/17 07:49:22;;;;;;;0.00;0.00;;;;;;;16.52;100.00;101666.53;5061888;28;20032;-74
2022/10/17 07:51:48;;;;;;;0.00;0.00;;;;;;;16.37;100.00;101681.47;5046386;28;20032;-73
2022/10/17 07:54:13;;;;;;;0.10;0.10;;;;;;;16.35;100.00;101668.06;5047788;28;20039;-73
2022/10/17 07:56:39;;;;;;;0.03;0.03;;;;;;;16.31;100.00;101704.53;5058887;28;20027;-72
2022/10/17 07:59:04;;;;;;;0.10;0.10;;;;;;;16.12;100.00;101702.63;5061586;28;20040;-78
2022/10/17 08:01:29;;;;;;;0.00;0.00;;;;;;;16.23;100.00;101742.31;5044089;28;20024;-73
2022/10/17 08:03:55;;;;;;;0.05;0.05;;;;;;;16.24;100.00;101749.44;5061737;28;20517;-73
2022/10/17 08:06:20;;;;;;;0.00;0.00;;;;;;;16.27;100.00;101747.31;5062975;28;20033;-74
2022/10/17 08:08:46;;;;;;;0.00;0.00;;;;;;;16.24;100.00;101744.88;5058642;28;20024;-75
2022/10/17 08:11:13;;;;;;;0.00;0.00;;;;;;;16.31;100.00;101777.69;5056966;28;20028;-73
2022/10/17 08:13:39;;;;;;;0.10;0.10;;;;;;;16.31;100.00;101772.28;5045001;28;20475;-75
2022/10/17 08:16:07;;;;;;;0.03;0.03;;;;;;;16.27;100.00;101768.16;5044929;28;20032;-75
2022/10/17 08:18:33;;;;;;;0.00;0.00;;;;;;;16.38;100.00;101750.94;5042930;28;20490;-72
2022/10/17 08:20:59;;;;;;;0.00;0.00;;;;;;;16.43;100.00;101776.63;5067789;28;20039;-71
2022/10/17 08:23:25;;;;;;;0.00;0.00;;;;;;;16.40;100.00;101786.91;5063841;28;20025;-72
2022/10/17 08:25:51;;;;;;;0.00;0.00;;;;;;;16.37;100.00;101771.75;5066319;28;20032;-72
2022/10/17 08:28:16;;;;;;;0.00;0.00;;;;;;;16.36;100.00;101755.66;5061278;28;20045;-73
2022/10/17 08:30:41;;;;;;;0.00;0.00;;;;;;;16.40;100.00;101771.50;5051527;28;20459;-72
2022/10/17 08:33:06;;;;;;;0.00;0.00;;;;;;;16.32;100.00;101780.28;5065566;28;20097;-72
2022/10/17 08:35:32;;;;;;;0.00;0.00;;;;;;;16.23;100.00;101801.91;5066955;28;20109;-71
2022/10/17 08:38:00;;;;;;;0.00;0.00;;;;;;;16.32;100.00;101815.53;5063641;28;20043;-71
2022/10/17 08:40:27;;;;;;;0.25;0.10;;;;;;;16.05;100.00;101856.69;5046149;28;20156;-73
2022/10/17 08:43:31;;;;;;;0.00;0.00;;;;;;;15.88;100.00;101844.59;5060466;28;20025;-72
2022/10/17 08:46:01;;;;;;;0.10;0.10;;;;;;;15.82;100.00;101826.97;5054512;28;20481;-73
2022/10/17 08:48:29;;;;;;;0.00;0.00;;;;;;;15.84;100.00;101824.16;5051987;28;20119;-77
2022/10/17 08:51:09;;;;;;;0.00;0.00;;;;;;;15.89;100.00;101820.06;5045542;28;20484;-77
2022/10/17 08:53:39;;;;;;;0.00;0.00;;;;;;;15.87;100.00;101813.94;5050064;28;20439;-76
2022/10/17 08:56:30;;;;;;;0.00;0.00;;;;;;;15.72;100.00;101843.13;5029315;28;20510;-74
2022/10/17 08:58:56;;;;;;;0.10;0.10;;;;;;;15.74;100.00;101835.75;5052205;28;20531;-73
2022/10/17 09:01:35;;;;;;;0.00;0.00;;;;;;;15.78;100.00;101803.84;5066631;28;20024;-77
2022/10/17 09:04:15;;;;;;;0.00;0.00;;;;;;;15.89;100.00;101830.91;5044191;28;20032;-75
2022/10/17 09:06:49;;;;;;;0.00;0.00;;;;;;;15.84;100.00;101838.53;5062603;28;20350;-77
2022/10/17 09:09:26;;;;;;;0.00;0.00;;;;;;;15.79;100.00;101835.34;5032386;28;20028;-74
2022/10/17 09:12:16;;;;;;;0.10;0.10;;;;;;;15.71;100.00;101849.53;5044765;28;20040;-75
2022/10/17 09:15:04;;;;;;;0.10;0.10;;;;;;;15.84;100.00;101853.94;5047283;28;20067;-75
2022/10/17 09:17:48;;;;;;;0.00;0.00;;;;;;;15.63;100.00;101808.69;5045029;28;20094;-76
2022/10/17 09:20:15;;;;;;;;;;;;;;;15.74;100.00;101815.94;5026294;28;20020;-76
2022/10/17 09:22:54;;;;;;;0.00;0.00;;;;;;;15.63;100.00;101843.88;5027483;28;19920;-73
2022/10/17 09:25:19;;;;;;;0.00;0.00;;;;;;;15.52;100.00;101830.41;5047615;28;20111;-74
2022/10/17 09:27:55;;;;;;;0.00;0.00;;;;;;;15.67;100.00;101848.06;5046592;28;20085;-75
2022/10/17 09:30:43;;;;;;;0.00;0.00;;;;;;;15.62;100.00;101868.41;5042661;28;20029;-74
2022/10/17 09:33:19;;;;;;;0.10;0.10;;;;;;;15.59;100.00;101880.34;5060671;28;20032;-75
2022/10/17 09:35:45;;;;;;;0.00;0.00;;;;;;;15.68;100.00;101882.28;5046655;28;20028;-74
2022/10/17 09:38:18;;;;;;;0.00;0.00;;;;;;;15.72;100.00;101869.34;5047373;28;20033;-75
2022/10/17 09:40:47;;;;;;;0.10;0.10;;;;;;;15.75;100.00;101891.59;5047882;28;20151;-75
2022/10/17 09:43:13;;;;;;;0.00;0.00;;;;;;;15.66;100.00;101905.06;5048720;28;20077;-76
2022/10/17 09:46:04;;;;;;;0.00;0.00;;;;;;;15.60;100.00;101877.50;5047403;28;20436;-75
2022/10/17 09:48:41;;;;;;;0.10;0.10;;;;;;;15.64;100.00;101825.81;5048275;28;20020;-74
2022/10/17 09:51:08;;;;;;;0.10;0.10;;;;;;;15.57;100.00;101782.19;5044913;28;20064;-73
2022/10/17 09:53:36;;;;;;;0.00;0.00;;;;;;;15.67;100.00;101783.09;5063562;28;21451;-74
2022/10/17 09:56:04;;;;;;;0.00;0.00;;;;;;;15.66;100.00;101807.59;5047025;28;20032;-75
2022/10/17 09:58:52;;;;;;;0.00;0.00;;;;;;;15.48;100.00;101813.59;5046090;28;20070;-75
2022/10/17 10:01:23;;;;;;;0.03;0.03;;;;;;;15.49;100.00;101822.53;5039909;28;20313;-74
2022/10/17 10:04:10;;;;;;;0.00;0.00;;;;;;;15.57;100.00;101847.97;5046564;28;20033;-73
2022/10/17 10:06:35;;;;;;;0.10;0.10;;;;;;;15.60;100.00;101876.66;5040769;28;20024;-74
2022/10/17 10:09:04;;;;;;;0.00;0.00;;;;;;;15.57;100.00;101883.16;5064252;28;20812;-75
2022/10/17 10:11:56;;;;;;;0.10;0.10;;;;;;;15.58;100.00;101865.94;5060861;28;20043;-75
2022/10/17 10:14:32;;;;;;;1.55;0.10;;;;;;;15.64;100.00;101882.66;5044053;28;20040;-75
2022/10/17 10:16:58;;;;;;;0.10;0.10;;;;;;;15.65;100.00;101873.56;5067135;28;20033;-76
2022/10/17 10:19:27;;;;;;;0.10;0.10;;;;;;;15.71;100.00;101854.09;5027891;28;20043;-74
2022/10/17 10:21:57;;;;;;;0.00;0.00;;;;;;;15.79;100.00;101843.47;5066137;28;20111;-73
2022/10/17 10:24:25;;;;;;;0.00;0.00;;;;;;;15.90;100.00;101839.88;5046977;28;20025;-75
2022/10/17 10:26:53;;;;;;;0.00;0.00;;;;;;;15.94;100.00;101837.78;5064624;28;20455;-75
2022/10/17 10:29:33;;;;;;;0.00;0.00;;;;;;;16.03;100.00;101850.53;5045893;28;20025;-73
2022/10/17 10:32:07;;;;;;;0.00;0.00;;;;;;;15.98;100.00;101871.75;5028538;28;20472;-75
2022/10/17 10:34:34;;;;;;;0.00;0.00;;;;;;;15.85;100.00;101872.75;5064000;28;20031;-75
2022/10/17 10:37:16;;;;;;;0.10;0.10;;;;;;;15.84;100.00;101852.06;5049652;28;20032;-74
2022/10/17 10:39:48;;;;;;;0.10;0.10;;;;;;;15.89;100.00;101876.09;5042598;28;20459;-74
2022/10/17 10:42:33;;;;;;;0.10;0.10;;;;;;;16.05;100.00;101889.19;5044423;28;20075;-73
2022/10/17 10:45:10;;;;;;;0.10;0.10;;;;;;;15.91;100.00;101886.78;5041459;28;20028;-73
2022/10/17 10:47:36;;;;;;;0.10;0.10;;;;;;;15.93;100.00;101890.22;5046074;28;20162;-73
2022/10/17 10:50:19;;;;;;;0.00;0.00;;;;;;;15.93;100.00;101903.78;5045058;28;20047;-73
2022/10/17 10:52:53;;;;;;;0.00;0.00;;;;;;;16.03;100.00;101907.41;5060009;28;20028;-73
2022/10/17 10:55:31;;;;;;;0.00;0.00;;;;;;;16.15;100.00;101900.13;5063309;28;20028;-75
2022/10/17 10:58:08;;;;;;;0.00;0.00;;;;;;;16.00;100.00;101913.97;5044317;28;20040;-73
2022/10/17 11:00:36;;;;;;;0.00;0.00;;;;;;;16.05;100.00;101927.09;5044971;28;20027;-75
2022/10/17 11:03:13;;;;;;;0.00;0.00;;;;;;;15.88;100.00;101909.59;5044829;28;20039;-74
2022/10/17 11:05:58;;;;;;;0.10;0.10;;;;;;;16.07;100.00;101938.66;5064028;28;20399;-73
2022/10/17 11:08:39;;;;;;;0.10;0.10;;;;;;;16.07;100.00;101935.13;5050055;28;20100;-73
2022/10/17 11:12:10;;;;;;;0.10;0.10;;;;;;;15.96;100.00;101938.72;5044882;28;20657;-73
2022/10/17 11:14:43;;;;;;;0.00;0.00;;;;;;;16.00;100.00;101948.31;5008068;28;20088;-73
2022/10/17 11:17:19;;;;;;;0.00;0.00;;;;;;;15.99;100.00;101949.31;5047640;28;20038;-71
2022/10/17 11:19:51;;;;;;;0.10;0.10;;;;;;;15.96;100.00;101954.97;5060598;28;20028;-74
2022/10/17 11:22:28;;;;;;;0.10;0.10;;;;;;;15.94;100.00;101960.50;5062948;28;20025;-75
2022/10/17 11:24:59;;;;;;;0.00;0.00;;;;;;;15.92;100.00;101950.81;5045962;28;20032;-75
2022/10/17 11:27:27;;;;;;;0.10;0.10;;;;;;;15.95;100.00;101961.38;5061881;28;20039;-73